Terminal Aerodrome Forecast
Issued by NWS Wakefield, VA

Home | Current Version | Previous Version | Text Only | Print | Product List | Glossary On
Versions: 1 2 3 4 5 6 7 8 9 10 11 12 13 14 15 16 17 18 19 20 21 22 23 24 25 26 27 28
000
FTUS41 KAKQ 230800 AAB
TAFSBY
TAF AMD
KSBY 230827Z 2308/2406 32012G20KT P6SM -RA BKN015 OVC025
     FM231400 32017G25KT P6SM SCT025 BKN040
     FM231800 31015G20KT P6SM SCT040 BKN060
     FM232300 32009KT P6SM SKC=

USA.gov is the U.S. government's official web portal to all federal, state and local government web resources and services.